Time;durP1;ratioP1;P1;durP2;ratioP2;P2;SDS_P1;SDS_P2;PMS_P1;PMS_P2;Temp;Humidity;BMP_temperature;BMP_pressure;BME280_temperature;BME280_humidity;BME280_pressure;Samples;Min_cycle;Max_cycle;Signal;HPM_P1;HPM_P2
2021/07/31 00:01:44;;;;;;;;;;;;;;;18.89;65.11;100010.72;5037248;28;1714;-69
2021/07/31 00:04:09;;;;;;;;;;;;;;;18.83;65.23;100018.66;5036273;28;1958;-69
2021/07/31 00:06:34;;;;;;;;;;;;;;;18.81;65.43;100016.13;5037648;28;894;-69
2021/07/31 00:08:59;;;;;;;;;;;;;;;18.86;65.68;100013.75;5037634;28;906;-69
2021/07/31 00:11:24;;;;;;;;;;;;;;;18.85;65.56;100006.69;5037060;28;1664;-68
2021/07/31 00:13:49;;;;;;;;;;;;;;;18.87;65.86;100007.34;5037422;28;1049;-68
2021/07/31 00:16:14;;;;;;;;;;;;;;;18.82;65.50;100006.19;5037103;28;1002;-68
2021/07/31 00:18:39;;;;;;;;;;;;;;;18.83;65.09;99995.22;5037145;28;998;-68
2021/07/31 00:21:04;;;;;;;;;;;;;;;18.82;66.10;100007.03;5036823;28;1765;-69
2021/07/31 00:23:29;;;;;;;;;;;;;;;18.91;66.14;100003.28;5037049;28;1761;-68
2021/07/31 00:25:55;;;;;;;;;;;;;;;18.76;66.03;100006.88;5037663;28;1898;-68
2021/07/31 00:28:20;;;;;;;;;;;;;;;18.75;65.95;100007.91;5036960;28;795;-68
2021/07/31 00:30:45;;;;;;;;;;;;;;;18.76;65.98;100006.88;5036847;28;1743;-68
2021/07/31 00:33:10;;;;;;;;;;;;;;;18.63;66.74;99991.25;5037048;28;868;-68
2021/07/31 00:35:35;;;;;;;;;;;;;;;18.60;66.51;100002.38;5037012;28;850;-68
2021/07/31 00:38:00;;;;;;;;;;;;;;;18.66;66.88;99999.81;5036956;28;1001;-65
2021/07/31 00:40:25;;;;;;;;;;;;;;;18.71;66.30;99992.03;5035360;28;1009;-66
2021/07/31 00:42:50;;;;;;;;;;;;;;;18.77;66.94;99990.53;5037212;28;934;-66
2021/07/31 00:45:15;;;;;;;;;;;;;;;18.76;67.17;99994.22;5036559;28;1952;-66
2021/07/31 00:47:41;;;;;;;;;;;;;;;18.66;67.29;99994.41;5036209;28;1706;-66
2021/07/31 00:50:06;;;;;;;;;;;;;;;18.80;66.70;100000.97;5036604;28;1641;-66
2021/07/31 00:52:31;;;;;;;;;;;;;;;18.77;66.40;99990.53;5037015;28;1183;-66
2021/07/31 00:54:56;;;;;;;;;;;;;;;18.69;67.18;99993.22;5036824;28;869;-66
2021/07/31 00:57:21;;;;;;;;;;;;;;;18.78;67.10;99996.75;5035407;28;840;-66
2021/07/31 00:59:46;;;;;;;;;;;;;;;18.73;67.11;99995.41;5034970;28;1197;-67
2021/07/31 01:02:11;;;;;;;;;;;;;;;18.79;67.02;99985.78;5036304;28;768;-67
2021/07/31 01:04:36;;;;;;;;;;;;;;;18.85;66.26;99990.47;5036199;28;1910;-67
2021/07/31 01:07:01;;;;;;;;;;;;;;;18.67;67.79;100000.66;5036379;28;1835;-67
2021/07/31 01:09:27;;;;;;;;;;;;;;;18.50;67.08;100007.91;5036398;28;839;-66
2021/07/31 01:11:52;;;;;;;;;;;;;;;18.47;67.79;100004.69;5036516;28;776;-67
2021/07/31 01:14:17;;;;;;;;;;;;;;;18.36;68.43;100004.06;5035990;28;1739;-67
2021/07/31 01:16:42;;;;;;;;;;;;;;;18.37;67.84;100002.19;5036016;28;914;-67
2021/07/31 01:19:07;;;;;;;;;;;;;;;18.43;68.23;100008.78;5036004;28;946;-67
2021/07/31 01:21:32;;;;;;;;;;;;;;;18.37;67.96;100011.13;5035934;28;1393;-67
2021/07/31 01:23:57;;;;;;;;;;;;;;;18.39;68.63;100014.50;5035719;28;1943;-67
2021/07/31 01:26:22;;;;;;;;;;;;;;;18.50;67.96;100009.75;5035402;28;1601;-67
2021/07/31 01:28:47;;;;;;;;;;;;;;;18.44;68.13;100013.16;5036103;28;1061;-66
2021/07/31 01:31:12;;;;;;;;;;;;;;;18.49;68.12;100014.31;5035817;28;998;-66
2021/07/31 01:33:37;;;;;;;;;;;;;;;18.41;68.21;100008.09;5035777;28;898;-66
2021/07/31 01:36:02;;;;;;;;;;;;;;;18.42;68.06;100010.63;5035662;28;998;-66
2021/07/31 01:38:27;;;;;;;;;;;;;;;18.41;68.35;100010.81;5035662;28;1065;-66
2021/07/31 01:40:53;;;;;;;;;;;;;;;18.48;67.62;100014.47;5035584;28;1005;-66
2021/07/31 01:43:18;;;;;;;;;;;;;;;18.58;67.77;100009.75;5035618;28;1689;-66
2021/07/31 01:45:43;;;;;;;;;;;;;;;18.52;67.87;100008.59;5035460;28;1898;-66
2021/07/31 01:48:08;;;;;;;;;;;;;;;18.38;67.63;100003.88;5035723;28;962;-66
2021/07/31 01:50:33;;;;;;;;;;;;;;;18.28;68.52;100012.13;5035000;28;1649;-66
2021/07/31 01:52:58;;;;;;;;;;;;;;;18.26;68.25;100022.28;5035657;28;839;-66
2021/07/31 01:55:23;;;;;;;;;;;;;;;18.19;68.64;100013.16;5035549;28;910;-66
2021/07/31 01:57:48;;;;;;;;;;;;;;;18.19;68.57;100013.16;5035692;28;918;-66
2021/07/31 02:00:13;;;;;;;;;;;;;;;18.32;67.78;99997.31;5035008;28;1672;-66
2021/07/31 02:02:38;;;;;;;;;;;;;;;18.47;68.21;100007.41;5035468;28;1006;-66
2021/07/31 02:05:03;;;;;;;;;;;;;;;18.60;67.87;100005.06;5035307;28;1898;-66
2021/07/31 02:07:29;;;;;;;;;;;;;;;18.55;67.71;100007.41;5035662;28;930;-66
2021/07/31 02:09:54;;;;;;;;;;;;;;;18.51;67.44;100006.06;5035453;28;867;-67
2021/07/31 02:12:19;;;;;;;;;;;;;;;18.42;67.83;100002.53;5035504;28;1057;-67
2021/07/31 02:14:44;;;;;;;;;;;;;;;18.53;67.69;100009.44;5034917;28;811;-67
2021/07/31 02:17:09;;;;;;;;;;;;;;;18.56;67.71;100009.94;5034909;28;1234;-67
2021/07/31 02:19:34;;;;;;;;;;;;;;;18.36;67.60;100003.22;5034918;28;1739;-67
2021/07/31 02:22:00;;;;;;;;;;;;;;;18.42;67.86;100007.09;5035276;28;949;-67
2021/07/31 02:24:25;;;;;;;;;;;;;;;18.51;67.88;100008.75;5035034;28;1897;-66
2021/07/31 02:26:50;;;;;;;;;;;;;;;18.49;67.49;100008.06;5034953;28;1683;-66
2021/07/31 02:29:15;;;;;;;;;;;;;;;18.58;67.06;100012.47;5034999;28;1735;-66
2021/07/31 02:31:40;;;;;;;;;;;;;;;18.65;66.75;100008.91;5034848;28;1068;-66
2021/07/31 02:34:05;;;;;;;;;;;;;;;18.54;68.16;100011.09;5034981;28;799;-66
2021/07/31 02:36:30;;;;;;;;;;;;;;;18.56;67.20;100001.00;5034934;28;1708;-66
2021/07/31 02:38:55;;;;;;;;;;;;;;;18.49;68.06;100002.69;5033828;28;871;-66
2021/07/31 02:41:20;;;;;;;;;;;;;;;18.36;68.71;100004.06;5034856;28;858;-66
2021/07/31 02:43:45;;;;;;;;;;;;;;;18.41;68.62;100000.00;5034658;28;1953;-66
2021/07/31 02:46:11;;;;;;;;;;;;;;;18.32;68.94;99991.91;5034830;28;1057;-65
2021/07/31 02:48:36;;;;;;;;;;;;;;;18.42;68.33;100007.09;5034733;28;930;-66
2021/07/31 02:51:01;;;;;;;;;;;;;;;18.55;68.28;100010.09;5034475;28;930;-66
2021/07/31 02:53:26;;;;;;;;;;;;;;;18.49;68.31;100000.81;5034779;28;763;-67
2021/07/31 02:55:51;;;;;;;;;;;;;;;18.52;68.59;100003.19;5034526;28;1776;-67
2021/07/31 02:58:16;;;;;;;;;;;;;;;18.51;68.55;100009.59;5034730;28;945;-66
2021/07/31 03:00:42;;;;;;;;;;;;;;;18.41;68.96;100000.00;5034722;28;1262;-66
2021/07/31 03:03:07;;;;;;;;;;;;;;;18.34;69.13;100000.69;5034557;28;791;-66
2021/07/31 03:05:32;;;;;;;;;;;;;;;18.24;69.45;100008.13;5034681;28;1923;-66
2021/07/31 03:07:57;;;;;;;;;;;;;;;18.34;69.54;100007.94;5034698;28;843;-67
2021/07/31 03:10:22;;;;;;;;;;;;;;;18.35;69.85;100002.38;5034902;28;1064;-66
2021/07/31 03:12:47;;;;;;;;;;;;;;;18.48;69.18;100003.69;5034425;28;1861;-67
2021/07/31 03:15:12;;;;;;;;;;;;;;;18.41;69.24;100005.41;5034477;28;906;-67
2021/07/31 03:17:37;;;;;;;;;;;;;;;18.38;69.30;100006.59;5034246;28;867;-66
2021/07/31 03:20:02;;;;;;;;;;;;;;;18.31;70.06;100002.88;5033110;28;1677;-66
2021/07/31 03:22:27;;;;;;;;;;;;;;;18.25;69.99;100007.09;5035020;28;993;-67
2021/07/31 03:24:52;;;;;;;;;;;;;;;18.25;70.32;99998.16;5034207;28;1956;-66
2021/07/31 03:27:18;;;;;;;;;;;;;;;18.22;69.50;100004.75;5032928;28;1452;-66
2021/07/31 03:29:43;;;;;;;;;;;;;;;18.17;70.32;100012.50;5034435;28;990;-66
2021/07/31 03:32:08;;;;;;;;;;;;;;;17.98;70.42;100010.97;5033995;28;1870;-66
2021/07/31 03:34:33;;;;;;;;;;;;;;;17.90;70.80;100023.63;5034086;28;903;-66
2021/07/31 03:36:58;;;;;;;;;;;;;;;17.91;70.26;100030.69;5034173;28;804;-66
2021/07/31 03:39:23;;;;;;;;;;;;;;;18.02;70.69;100033.06;5034381;28;870;-66
2021/07/31 03:41:48;;;;;;;;;;;;;;;17.96;70.54;100033.72;5034321;28;874;-66
2021/07/31 03:44:13;;;;;;;;;;;;;;;18.06;70.00;100039.81;5032961;28;1890;-66
2021/07/31 03:46:38;;;;;;;;;;;;;;;18.12;70.20;100032.88;5033840;28;1750;-66
2021/07/31 03:49:03;;;;;;;;;;;;;;;18.02;69.75;100033.91;5034364;28;1501;-67
2021/07/31 03:51:28;;;;;;;;;;;;;;;18.00;69.84;100043.16;5037585;28;910;-66
2021/07/31 03:53:54;;;;;;;;;;;;;;;17.89;69.89;100036.25;5037861;28;882;-66
2021/07/31 03:56:19;;;;;;;;;;;;;;;17.99;69.98;100049.56;5036379;28;1648;-67
2021/07/31 03:58:44;;;;;;;;;;;;;;;17.91;70.51;100053.09;5037951;28;941;-66
2021/07/31 04:01:09;;;;;;;;;;;;;;;17.86;69.93;100054.59;5038133;28;1192;-66
2021/07/31 04:03:34;;;;;;;;;;;;;;;17.82;70.59;100061.31;5037392;28;823;-66
2021/07/31 04:06:00;;;;;;;;;;;;;;;17.88;69.87;100063.38;5037221;28;1906;-66
2021/07/31 04:08:25;;;;;;;;;;;;;;;17.76;69.94;100065.50;5037699;28;964;-66
2021/07/31 04:10:50;;;;;;;;;;;;;;;17.87;69.70;100058.97;5036139;28;935;-66
2021/07/31 04:13:15;;;;;;;;;;;;;;;17.83;70.10;100068.41;5037278;28;1692;-66
2021/07/31 04:15:40;;;;;;;;;;;;;;;17.81;69.60;100065.03;5035099;28;1184;-66
2021/07/31 04:18:05;;;;;;;;;;;;;;;17.85;69.79;100072.63;5036768;28;1460;-66
2021/07/31 04:20:30;;;;;;;;;;;;;;;17.86;69.84;100077.00;5036799;28;1348;-66
2021/07/31 04:22:55;;;;;;;;;;;;;;;17.94;69.30;100074.31;5036538;28;1408;-66
2021/07/31 04:25:20;;;;;;;;;;;;;;;17.96;69.51;100071.44;5036687;28;1957;-66
2021/07/31 04:27:47;;;;;;;;;;;;;;;17.74;70.80;100075.59;5036541;28;1347;-66
2021/07/31 04:30:12;;;;;;;;;;;;;;;17.84;70.04;100081.72;5036899;28;1415;-66
2021/07/31 04:32:37;;;;;;;;;;;;;;;17.77;70.14;100077.13;5036471;28;1433;-66
2021/07/31 04:35:02;;;;;;;;;;;;;;;17.85;70.23;100079.88;5036501;28;1343;-66
2021/07/31 04:37:27;;;;;;;;;;;;;;;17.86;70.08;100079.69;5036413;28;1374;-66
2021/07/31 04:39:52;;;;;;;;;;;;;;;17.81;70.48;100082.03;5036436;28;1466;-66
2021/07/31 04:42:17;;;;;;;;;;;;;;;17.89;70.42;100090.16;5036223;28;1414;-66
2021/07/31 04:44:42;;;;;;;;;;;;;;;17.88;70.39;100090.31;5036254;28;1958;-65
2021/07/31 04:47:08;;;;;;;;;;;;;;;17.79;70.21;100096.69;5036263;28;1335;-66
2021/07/31 04:49:33;;;;;;;;;;;;;;;17.76;70.79;100097.84;5035984;28;1310;-66
2021/07/31 04:51:58;;;;;;;;;;;;;;;17.79;70.89;100091.28;5036158;28;1303;-66
2021/07/31 04:54:23;;;;;;;;;;;;;;;17.85;70.08;100096.03;5036233;28;1351;-66
2021/07/31 04:56:48;;;;;;;;;;;;;;;17.81;70.48;100100.06;5034837;28;1303;-66
2021/07/31 04:59:13;;;;;;;;;;;;;;;17.88;70.24;100098.41;5035726;28;1493;-66
2021/07/31 05:01:38;;;;;;;;;;;;;;;17.89;70.12;100102.78;5034556;28;1374;-66
2021/07/31 05:04:03;;;;;;;;;;;;;;;17.98;69.75;100101.78;5034631;28;1973;-66
2021/07/31 05:06:29;;;;;;;;;;;;;;;17.78;70.16;100105.78;5035796;28;1445;-67
2021/07/31 05:08:55;;;;;;;;;;;;;;;17.76;70.21;100107.78;5036196;28;1418;-66
2021/07/31 05:11:21;;;;;;;;;;;;;;;17.71;70.68;100105.59;5035896;28;1366;-66
2021/07/31 05:13:46;;;;;;;;;;;;;;;17.78;70.58;100108.47;5036054;28;1461;-66
2021/07/31 05:16:11;;;;;;;;;;;;;;;17.69;70.70;100110.31;5035537;28;1441;-66
2021/07/31 05:18:36;;;;;;;;;;;;;;;17.64;70.90;100115.34;5035520;28;1359;-66
2021/07/31 05:21:01;;;;;;;;;;;;;;;17.62;71.36;100112.75;5035194;28;1421;-66
2021/07/31 05:23:27;;;;;;;;;;;;;;;17.65;71.37;100119.72;5035459;28;1427;-66
2021/07/31 05:25:52;;;;;;;;;;;;;;;17.70;71.55;100120.09;5033853;28;1973;-66
2021/07/31 05:28:17;;;;;;;;;;;;;;;17.72;70.98;100117.22;5035595;28;1446;-66
2021/07/31 05:30:42;;;;;;;;;;;;;;;17.74;71.05;100120.56;5035462;28;1406;-66
2021/07/31 05:33:07;;;;;;;;;;;;;;;17.71;71.06;100126.31;5035468;28;1358;-68
2021/07/31 05:35:32;;;;;;;;;;;;;;;17.73;71.19;100127.00;5035789;28;1648;-70
2021/07/31 05:37:57;;;;;;;;;;;;;;;17.79;71.56;100129.03;5034259;28;1708;-74
2021/07/31 05:40:22;;;;;;;;;;;;;;;17.86;71.16;100120.13;5035761;28;1060;-74
2021/07/31 05:42:47;;;;;;;;;;;;;;;17.95;70.40;100112.91;5033194;28;2108;-72
2021/07/31 05:45:13;;;;;;;;;;;;;;;18.00;70.81;100130.28;5034324;28;1898;-68
2021/07/31 05:47:38;;;;;;;;;;;;;;;17.91;70.86;100133.13;5033137;28;1511;-69
2021/07/31 05:50:03;;;;;;;;;;;;;;;17.75;71.72;100131.19;5033988;28;1387;-68
2021/07/31 05:52:28;;;;;;;;;;;;;;;17.72;71.40;100142.31;5034328;28;1784;-68
2021/07/31 05:54:53;;;;;;;;;;;;;;;17.81;71.00;100143.19;5034525;28;1280;-68
2021/07/31 05:57:18;;;;;;;;;;;;;;;17.83;71.34;100139.31;5034280;28;1431;-68
2021/07/31 05:59:43;;;;;;;;;;;;;;;17.92;71.04;100140.19;5034040;28;1579;-68
2021/07/31 06:02:10;;;;;;;;;;;;;;;17.98;70.62;100140.38;5033152;28;1412;-68
2021/07/31 06:04:35;;;;;;;;;;;;;;;17.85;71.01;100145.41;5032716;28;1969;-69
2021/07/31 06:07:00;;;;;;;;;;;;;;;17.79;71.26;100142.50;5032681;28;1525;-68
2021/07/31 06:09:25;;;;;;;;;;;;;;;17.75;71.18;100147.38;5034114;28;1435;-68
2021/07/31 06:11:51;;;;;;;;;;;;;;;17.60;71.72;100157.03;5034310;28;1371;-68
2021/07/31 06:14:16;;;;;;;;;;;;;;;17.62;71.67;100155.88;5034052;28;1320;-68
2021/07/31 06:16:41;;;;;;;;;;;;;;;17.60;71.41;100155.19;5034266;28;1506;-68
2021/07/31 06:19:06;;;;;;;;;;;;;;;17.64;71.46;100163.84;5032916;28;1367;-68
2021/07/31 06:21:31;;;;;;;;;;;;;;;17.67;71.37;100153.59;5032858;28;1383;-69
2021/07/31 06:23:57;;;;;;;;;;;;;;;17.71;71.11;100154.09;5033886;28;1914;-68
2021/07/31 06:26:22;;;;;;;;;;;;;;;17.82;70.87;100161.88;5034250;28;1465;-72
2021/07/31 06:28:47;;;;;;;;;;;;;;;17.67;71.35;100153.59;5034430;28;1609;-73
2021/07/31 06:31:12;;;;;;;;;;;;;;;17.60;71.32;100167.81;5031683;28;1177;-73
2021/07/31 06:33:37;;;;;;;;;;;;;;;17.63;71.53;100173.72;5033263;28;1612;-74
2021/07/31 06:36:03;;;;;;;;;;;;;;;17.59;71.65;100177.75;5033781;28;1412;-73
2021/07/31 06:38:28;;;;;;;;;;;;;;;17.61;71.40;100181.13;5033555;28;1423;-74
2021/07/31 06:40:53;;;;;;;;;;;;;;;17.68;71.62;100176.00;5033592;28;1383;-74
2021/07/31 06:43:18;;;;;;;;;;;;;;;17.66;71.30;100181.53;5033148;28;1494;-74
2021/07/31 06:45:43;;;;;;;;;;;;;;;17.55;71.17;100180.94;5033173;28;1963;-74
2021/07/31 06:48:08;;;;;;;;;;;;;;;17.63;71.62;100184.50;5033184;28;1438;-74
2021/07/31 06:50:33;;;;;;;;;;;;;;;17.67;71.52;100191.31;5033367;28;1541;-74
2021/07/31 06:52:58;;;;;;;;;;;;;;;17.60;71.52;100195.59;5033987;28;1345;-74
2021/07/31 06:55:23;;;;;;;;;;;;;;;17.59;71.43;100193.91;5033849;28;1840;-74
2021/07/31 06:57:48;;;;;;;;;;;;;;;17.66;71.70;100189.63;5032617;28;1478;-74
2021/07/31 07:00:13;;;;;;;;;;;;;;;17.68;70.88;100195.69;5033064;28;1434;-74
2021/07/31 07:02:39;;;;;;;;;;;;;;;17.66;71.49;100205.78;5031411;28;1424;-74
2021/07/31 07:05:04;;;;;;;;;;;;;;;17.64;71.43;100209.66;5032598;28;1914;-74
2021/07/31 07:07:29;;;;;;;;;;;;;;;17.60;71.49;100213.63;5032848;28;1436;-74
2021/07/31 07:09:54;;;;;;;;;;;;;;;17.53;71.94;100224.22;5031488;28;1415;-74
2021/07/31 07:12:19;;;;;;;;;;;;;;;17.54;71.86;100216.97;5033189;28;1485;-74
2021/07/31 07:14:44;;;;;;;;;;;;;;;17.71;71.31;100208.00;5031688;28;1616;-74
2021/07/31 07:17:09;;;;;;;;;;;;;;;17.76;71.54;100207.50;5033296;28;1371;-74
2021/07/31 07:19:34;;;;;;;;;;;;;;;17.82;71.17;100210.41;5033364;28;1548;-73
2021/07/31 07:21:59;;;;;;;;;;;;;;;17.85;71.06;100218.19;5033066;28;1447;-74
2021/07/31 07:24:24;;;;;;;;;;;;;;;17.79;71.24;100216.13;5034415;28;1960;-74
2021/07/31 07:26:49;;;;;;;;;;;;;;;17.75;71.22;100214.75;5038048;28;1592;-73
2021/07/31 07:29:14;;;;;;;;;;;;;;;17.72;71.58;100222.31;5035050;28;1732;-74
2021/07/31 07:31:39;;;;;;;;;;;;;;;17.73;71.63;100226.72;5037854;28;926;-74
2021/07/31 07:34:05;;;;;;;;;;;;;;;17.80;71.80;100227.75;5036021;28;1655;-75
2021/07/31 07:36:30;;;;;;;;;;;;;;;17.81;71.46;100229.44;5037420;28;1289;-74
2021/07/31 07:38:55;;;;;;;;;;;;;;;17.64;71.64;100240.13;5037932;28;1494;-75
2021/07/31 07:41:20;;;;;;;;;;;;;;;17.62;71.83;100225.09;5038019;28;942;-74
2021/07/31 07:43:45;;;;;;;;;;;;;;;17.65;71.90;100236.44;5036558;28;1554;-74
2021/07/31 07:46:10;;;;;;;;;;;;;;;17.71;71.75;100236.81;5036360;28;2220;-76
2021/07/31 07:48:35;;;;;;;;;;;;;;;17.72;71.87;100243.88;5037936;28;1068;-75
2021/07/31 07:51:01;;;;;;;;;;;;;;;17.82;71.93;100241.91;5037127;28;1222;-74
2021/07/31 07:53:26;;;;;;;;;;;;;;;17.85;71.83;100237.03;5036264;28;1303;-74
2021/07/31 07:55:51;;;;;;;;;;;;;;;17.88;71.11;100233.19;5037842;28;1005;-75
2021/07/31 07:58:17;;;;;;;;;;;;;;;17.92;71.31;100224.59;5036385;28;1437;-74
2021/07/31 08:00:45;;;;;;;;;;;;;;;17.82;71.98;100236.50;5037414;28;1210;-74
2021/07/31 08:03:10;;;;;;;;;;;;;;;17.76;71.42;100238.00;5036392;28;915;-74
2021/07/31 08:05:35;;;;;;;;;;;;;;;17.84;71.59;100250.69;5037301;28;1977;-73
2021/07/31 08:08:02;;;;;;;;;;;;;;;17.78;72.41;100259.41;5037909;28;969;-73
2021/07/31 08:10:27;;;;;;;;;;;;;;;17.85;72.18;100260.47;5037769;28;1653;-73
2021/07/31 08:12:52;;;;;;;;;;;;;;;17.90;72.29;100266.22;5037331;28;1057;-74
2021/07/31 08:15:17;;;;;;;;;;;;;;;17.67;73.24;100263.22;5036329;28;1435;-73
2021/07/31 08:17:42;;;;;;;;;;;;;;;17.72;73.00;100265.44;5036335;28;1342;-73
2021/07/31 08:20:07;;;;;;;;;;;;;;;17.67;73.36;100272.16;5035177;28;1354;-73
2021/07/31 08:22:32;;;;;;;;;;;;;;;17.71;73.10;100271.84;5036204;28;1212;-73
2021/07/31 08:24:57;;;;;;;;;;;;;;;17.60;73.77;100270.22;5036233;28;1890;-74
2021/07/31 08:27:22;;;;;;;;;;;;;;;17.59;73.66;100280.13;5035981;28;1331;-74
2021/07/31 08:29:48;;;;;;;;;;;;;;;17.51;74.10;100293.56;5035031;28;1308;-74
2021/07/31 08:32:13;;;;;;;;;;;;;;;17.50;73.82;100286.50;5035973;28;1403;-75
2021/07/31 08:34:38;;;;;;;;;;;;;;;17.47;73.91;100281.41;5035691;28;1408;-74
2021/07/31 08:37:03;;;;;;;;;;;;;;;17.69;73.78;100280.94;5034704;28;1399;-74
2021/07/31 08:39:28;;;;;;;;;;;;;;;17.89;72.91;100286.09;5036457;28;1327;-74
2021/07/31 08:41:54;;;;;;;;;;;;;;;17.78;73.54;100289.03;5036312;28;1419;-74
2021/07/31 08:44:19;;;;;;;;;;;;;;;17.77;73.84;100290.88;5036269;28;1894;-75
2021/07/31 08:46:44;;;;;;;;;;;;;;;17.78;74.09;100294.44;5034910;28;1667;-74
2021/07/31 08:49:09;;;;;;;;;;;;;;;17.78;73.78;100294.44;5035056;28;1721;-74
2021/07/31 08:51:35;;;;;;;;;;;;;;;17.89;73.62;100296.88;5036455;28;1743;-74
2021/07/31 08:54:00;;;;;;;;;;;;;;;17.94;73.53;100295.38;5036167;28;795;-75
2021/07/31 08:56:25;;;;;;;;;;;;;;;17.99;73.26;100303.00;5034942;28;1478;-74
2021/07/31 08:58:50;;;;;;;;;;;;;;;17.95;73.66;100309.69;5036025;28;2380;-75
2021/07/31 09:01:15;;;;;;;;;;;;;;;18.20;73.31;100306.13;5036509;28;1823;-74
2021/07/31 09:03:40;;;;;;;;;;;;;;;18.34;74.50;100308.19;5034549;28;1349;-74
2021/07/31 09:06:06;;;;;;;;;;;;;;;18.40;75.40;100309.41;5035707;28;1914;-75
2021/07/31 09:08:31;;;;;;;;;;;;;;;18.30;74.56;100312.22;5036054;28;1288;-75
2021/07/31 09:10:56;;;;;;;;;;;;;;;18.06;74.97;100313.97;5036119;28;2033;-75
2021/07/31 09:13:21;;;;;;;;;;;;;;;18.07;74.57;100313.81;5034105;28;1625;-75
2021/07/31 09:15:47;;;;;;;;;;;;;;;18.09;74.20;100319.06;5035770;28;1580;-74
2021/07/31 09:18:12;;;;;;;;;;;;;;;18.23;73.64;100318.44;5035869;28;1407;-75
2021/07/31 09:20:37;;;;;;;;;;;;;;;18.26;73.66;100321.69;5034756;28;1896;-74
2021/07/31 09:23:02;;;;;;;;;;;;;;;18.25;74.28;100325.38;5034403;28;1861;-75
2021/07/31 09:25:27;;;;;;;;;;;;;;;18.32;74.20;100323.69;5027470;28;1960;-73
2021/07/31 09:27:52;;;;;;;;;;;;;;;18.32;74.41;100325.56;5034257;28;1480;-71
2021/07/31 09:30:17;;;;;;;;;;;;;;;18.25;74.08;100328.06;5035323;28;1772;-72
2021/07/31 09:32:44;;;;;;;;;;;;;;;18.30;74.10;100333.81;5034920;28;1698;-71
2021/07/31 09:35:09;;;;;;;;;;;;;;;18.35;74.27;100336.03;5035061;28;1371;-71
2021/07/31 09:37:34;;;;;;;;;;;;;;;18.39;73.55;100337.41;5034370;28;1389;-72
2021/07/31 09:39:59;;;;;;;;;;;;;;;18.18;73.87;100336.97;5033967;28;1427;-70
2021/07/31 09:42:25;;;;;;;;;;;;;;;18.19;73.42;100346.75;5033866;28;1392;-71
2021/07/31 09:44:50;;;;;;;;;;;;;;;18.14;73.30;100343.66;5032256;28;1949;-70
2021/07/31 09:47:15;;;;;;;;;;;;;;;18.24;73.87;100347.97;5035069;28;1885;-70
2021/07/31 09:49:40;;;;;;;;;;;;;;;18.30;72.89;100344.59;5033786;28;1326;-70
2021/07/31 09:52:05;;;;;;;;;;;;;;;18.31;72.92;100351.69;5033919;28;1406;-72
2021/07/31 09:54:30;;;;;;;;;;;;;;;18.30;73.49;100354.53;5031155;28;1419;-75
2021/07/31 09:56:56;;;;;;;;;;;;;;;18.28;73.79;100353.84;5034258;28;1354;-70
2021/07/31 09:59:21;;;;;;;;;;;;;;;18.30;73.30;100363.47;5031212;28;1598;-70
2021/07/31 10:01:46;;;;;;;;;;;;;;;18.27;72.93;100361.09;5034101;28;1737;-70
2021/07/31 10:04:11;;;;;;;;;;;;;;;18.46;73.51;100364.56;5032317;28;1906;-68
2021/07/31 10:06:37;;;;;;;;;;;;;;;18.36;73.73;100364.69;5030403;28;1442;-68
2021/07/31 10:09:02;;;;;;;;;;;;;;;18.38;73.98;100357.28;5032752;28;1607;-68
2021/07/31 10:11:27;;;;;;;;;;;;;;;18.50;74.67;100365.94;5035187;28;1640;-68
2021/07/31 10:13:52;;;;;;;;;;;;;;;18.55;74.52;100358.19;5030504;28;1950;-68
2021/07/31 10:16:18;;;;;;;;;;;;;;;18.60;73.76;100383.75;5026532;28;1504;-68
2021/07/31 10:18:43;;;;;;;;;;;;;;;18.49;74.40;100383.13;5033029;28;1792;-70
2021/07/31 10:21:10;;;;;;;;;;;;;;;18.52;74.36;100382.81;5034645;28;1887;-71
2021/07/31 10:23:35;;;;;;;;;;;;;;;18.52;72.94;100382.81;5033361;28;1339;-71
2021/07/31 10:26:00;;;;;;;;;;;;;;;18.55;73.06;100385.19;5032277;28;1894;-71
2021/07/31 10:28:26;;;;;;;;;;;;;;;18.63;72.30;100387.97;5030235;28;1343;-71
2021/07/31 10:30:51;;;;;;;;;;;;;;;18.62;73.03;100391.69;5032269;28;1546;-71
2021/07/31 10:33:16;;;;;;;;;;;;;;;18.41;73.94;100394.75;5032010;28;1670;-72
2021/07/31 10:35:41;;;;;;;;;;;;;;;18.50;73.96;100398.31;5033856;28;1355;-71
2021/07/31 10:38:06;;;;;;;;;;;;;;;18.45;73.93;100400.66;5032874;28;1730;-72
2021/07/31 10:40:33;;;;;;;;;;;;;;;18.51;73.96;100394.59;5032896;28;1451;-71
2021/07/31 10:42:58;;;;;;;;;;;;;;;18.57;74.30;100400.22;5034276;28;1410;-71
2021/07/31 10:45:23;;;;;;;;;;;;;;;18.49;73.35;100396.63;5034661;28;1894;-72
2021/07/31 10:47:48;;;;;;;;;;;;;;;18.58;73.37;100395.66;5034859;28;1796;-72
2021/07/31 10:50:13;;;;;;;;;;;;;;;18.50;73.92;100409.09;5033384;28;1915;-72
2021/07/31 10:52:38;;;;;;;;;;;;;;;18.50;73.19;100403.72;5035395;28;1498;-71
2021/07/31 10:55:03;;;;;;;;;;;;;;;18.47;73.83;100410.28;5034911;28;1979;-71
2021/07/31 10:57:28;;;;;;;;;;;;;;;18.56;73.51;100413.88;5034832;28;1737;-70
2021/07/31 10:59:53;;;;;;;;;;;;;;;18.58;73.78;100418.09;5035951;28;1627;-70
2021/07/31 11:02:18;;;;;;;;;;;;;;;18.54;73.68;100411.34;5037654;28;1319;-70
2021/07/31 11:04:44;;;;;;;;;;;;;;;18.47;73.20;100421.06;5038198;28;1918;-70
2021/07/31 11:07:12;;;;;;;;;;;;;;;18.53;73.41;100428.53;5037745;28;1427;-71
2021/07/31 11:09:37;;;;;;;;;;;;;;;18.62;73.70;100432.16;5038681;28;894;-69
2021/07/31 11:12:02;;;;;;;;;;;;;;;18.70;72.29;100429.47;5037850;28;1736;-70
2021/07/31 11:14:27;;;;;;;;;;;;;;;18.78;72.14;100429.53;5037860;28;1428;-70
2021/07/31 11:16:52;;;;;;;;;;;;;;;18.67;72.52;100432.50;5035896;28;1447;-70
2021/07/31 11:19:17;;;;;;;;;;;;;;;18.51;71.89;100427.00;5037652;28;1343;-70
2021/07/31 11:21:45;;;;;;;;;;;;;;;18.48;71.72;100433.56;5037664;28;1387;-70
2021/07/31 11:24:10;;;;;;;;;;;;;;;18.58;71.54;100445.09;5038220;28;1914;-70
2021/07/31 11:26:36;;;;;;;;;;;;;;;18.59;71.10;100443.28;5026876;28;1494;-70
2021/07/31 11:29:01;;;;;;;;;;;;;;;18.61;71.56;100452.06;5030342;28;1666;-70
2021/07/31 11:31:26;;;;;;;;;;;;;;;18.44;71.47;100459.19;5037744;28;1263;-70
2021/07/31 11:33:52;;;;;;;;;;;;;;;18.36;71.78;100473.47;5037706;28;1840;-70
2021/07/31 11:36:17;;;;;;;;;;;;;;;18.27;72.71;100473.56;5037040;28;1350;-70
2021/07/31 11:38:42;;;;;;;;;;;;;;;18.48;72.91;100475.88;5037029;28;1693;-70
2021/07/31 11:41:07;;;;;;;;;;;;;;;18.49;72.92;100482.97;5036191;28;1387;-70
2021/07/31 11:43:32;;;;;;;;;;;;;;;18.41;72.61;100480.25;5036616;28;1426;-71
2021/07/31 11:45:57;;;;;;;;;;;;;;;18.35;72.90;100471.75;5036350;28;1906;-72
2021/07/31 11:48:23;;;;;;;;;;;;;;;18.38;72.86;100476.84;5036843;28;1385;-74
2021/07/31 11:50:48;;;;;;;;;;;;;;;18.45;72.46;100470.81;5037621;28;1681;-72
2021/07/31 11:53:13;;;;;;;;;;;;;;;18.41;72.94;100485.63;5037918;28;1064;-74
2021/07/31 11:55:38;;;;;;;;;;;;;;;18.27;72.55;100485.19;5036346;28;1390;-74
2021/07/31 11:58:03;;;;;;;;;;;;;;;18.30;72.90;100495.66;5035779;28;1485;-73
2021/07/31 12:00:28;;;;;;;;;;;;;;;18.33;72.85;100506.16;5037227;28;1343;-73
2021/07/31 12:02:53;;;;;;;;;;;;;;;18.21;72.77;100502.03;5036509;28;1396;-73
2021/07/31 12:05:18;;;;;;;;;;;;;;;18.26;73.07;100498.84;5036360;28;1961;-73
2021/07/31 12:07:43;;;;;;;;;;;;;;;18.40;72.42;100500.97;5036805;28;1429;-73
2021/07/31 12:10:10;;;;;;;;;;;;;;;18.35;72.31;100489.81;5035181;28;1327;-73
2021/07/31 12:12:36;;;;;;;;;;;;;;;18.46;71.87;100491.38;5037231;28;1698;-75
2021/07/31 12:15:01;;;;;;;;;;;;;;;18.64;72.73;100500.28;5037169;28;897;-75
2021/07/31 12:17:26;;;;;;;;;;;;;;;18.66;72.50;100499.13;5036810;28;1775;-75
2021/07/31 12:19:51;;;;;;;;;;;;;;;18.55;72.83;100495.84;5037746;28;1946;-75
2021/07/31 12:22:16;;;;;;;;;;;;;;;18.57;72.55;100501.91;5034000;28;2393;-74
2021/07/31 12:24:41;;;;;;;;;;;;;;;18.55;72.28;100503.94;5035426;28;1894;-74
2021/07/31 12:27:07;;;;;;;;;;;;;;;18.67;71.99;100502.69;5036593;28;1729;-75
2021/07/31 12:29:32;;;;;;;;;;;;;;;18.69;71.31;100504.22;5036374;28;1487;-75
2021/07/31 12:31:57;;;;;;;;;;;;;;;18.73;71.58;100497.50;5036410;28;1538;-74
2021/07/31 12:34:22;;;;;;;;;;;;;;;18.63;70.40;100495.94;5036941;28;1322;-75
2021/07/31 12:36:47;;;;;;;;;;;;;;;18.61;69.84;100500.63;5036903;28;1276;-75